createdAt,value
2022-08-05T00:00:20.609Z,0.00
2022-08-05T00:01:28.505Z,0.00
2022-08-05T00:02:20.692Z,0.00
2022-08-05T00:03:20.627Z,0.00
2022-08-05T00:04:20.637Z,0.00
2022-08-05T00:06:03.030Z,0.00
2022-08-05T00:06:30.667Z,0.00
2022-08-05T00:07:27.510Z,0.00
2022-08-05T00:08:34.958Z,0.00
2022-08-05T00:09:20.660Z,0.00
2022-08-05T00:10:20.673Z,0.00
2022-08-05T00:11:30.230Z,0.00
2022-08-05T00:12:20.673Z,0.00
2022-08-05T00:13:20.682Z,0.00
2022-08-05T00:14:20.687Z,0.00
2022-08-05T00:15:58.145Z,0.00
2022-08-05T00:16:36.174Z,0.00
2022-08-05T00:17:20.803Z,0.00
2022-08-05T00:18:21.567Z,0.00
2022-08-05T00:19:22.282Z,0.00
2022-08-05T00:20:20.719Z,0.00
2022-08-05T00:21:20.725Z,0.00
2022-08-05T00:22:20.725Z,0.00
2022-08-05T00:23:31.087Z,0.00
2022-08-05T00:24:24.917Z,0.00
2022-08-05T00:25:20.748Z,0.00
2022-08-05T00:26:20.750Z,0.00
2022-08-05T00:27:20.760Z,0.00
2022-08-05T00:28:29.452Z,0.00
2022-08-05T00:29:22.592Z,0.00
2022-08-05T00:30:20.774Z,0.00
2022-08-05T00:31:53.571Z,0.00
2022-08-05T00:32:20.798Z,0.00
2022-08-05T00:34:53.479Z,0.00
2022-08-05T00:34:55.858Z,0.00
2022-08-05T00:35:20.796Z,0.00
2022-08-05T00:37:11.270Z,0.00
2022-08-05T00:37:20.811Z,0.00
2022-08-05T00:38:28.788Z,0.00
2022-08-05T00:39:20.848Z,0.00
2022-08-05T00:40:28.082Z,0.00
2022-08-05T00:41:20.826Z,0.00
2022-08-05T00:42:31.521Z,0.00
2022-08-05T00:43:20.839Z,0.00
2022-08-05T00:44:20.993Z,0.00
2022-08-05T00:45:38.155Z,0.00
2022-08-05T00:46:20.854Z,0.00
2022-08-05T00:47:20.857Z,0.00
2022-08-05T00:48:27.549Z,0.00
2022-08-05T00:49:20.868Z,0.00
2022-08-05T00:50:21.147Z,0.00
2022-08-05T00:51:50.559Z,0.00
2022-08-05T00:52:28.287Z,0.00
2022-08-05T00:53:59.974Z,0.00
2022-08-05T00:54:20.900Z,0.00
2022-08-05T00:55:20.899Z,0.00
2022-08-05T00:56:22.817Z,0.00
2022-08-05T00:57:21.377Z,0.00
2022-08-05T00:58:20.914Z,0.00
2022-08-05T00:59:20.918Z,0.00
2022-08-05T01:00:21.953Z,0.00
2022-08-05T01:01:42.927Z,0.00
2022-08-05T01:02:20.935Z,0.00
2022-08-05T01:03:22.643Z,0.00
2022-08-05T01:04:26.727Z,0.00
2022-08-05T01:05:20.949Z,0.00
2022-08-05T01:06:20.953Z,0.00
2022-08-05T01:07:20.958Z,0.00
2022-08-05T01:08:41.409Z,0.00
2022-08-05T01:09:20.969Z,0.00
2022-08-05T01:10:20.973Z,0.00
2022-08-05T01:11:22.709Z,0.00
2022-08-05T01:12:20.991Z,0.00
2022-08-05T01:13:27.249Z,0.00
2022-08-05T01:14:28.123Z,0.00
2022-08-05T01:15:36.275Z,0.00
2022-08-05T01:16:26.116Z,0.00
2022-08-05T01:17:21.227Z,8.00
2022-08-05T01:18:21.015Z,8.00
2022-08-05T01:19:21.013Z,8.00
2022-08-05T01:20:22.323Z,8.00
2022-08-05T01:21:22.802Z,4.00
2022-08-05T01:22:24.060Z,8.00
2022-08-05T01:23:23.313Z,8.00
2022-08-05T01:24:21.045Z,8.00
2022-08-05T01:25:21.047Z,8.00
2022-08-05T01:26:21.055Z,8.00
2022-08-05T01:27:24.351Z,8.00
2022-08-05T01:28:21.064Z,8.00
2022-08-05T01:29:23.203Z,8.00
2022-08-05T01:30:21.071Z,8.00
2022-08-05T01:31:21.073Z,4.00
2022-08-05T01:32:21.087Z,8.00
2022-08-05T01:33:21.085Z,8.00
2022-08-05T01:34:21.089Z,8.00
2022-08-05T01:35:50.607Z,8.00
2022-08-05T01:36:21.192Z,8.00
2022-08-05T01:37:25.123Z,8.00
2022-08-05T01:38:27.006Z,8.00
2022-08-05T01:39:45.601Z,8.00
2022-08-05T01:40:21.131Z,4.00
2022-08-05T01:41:21.697Z,8.00
2022-08-05T01:42:21.130Z,8.00
2022-08-05T01:43:22.298Z,4.00
2022-08-05T01:44:21.140Z,4.00
2022-08-05T01:45:21.145Z,4.00
2022-08-05T01:46:43.031Z,4.00
2022-08-05T01:47:21.563Z,4.00
2022-08-05T01:48:21.158Z,4.00
2022-08-05T01:49:24.299Z,4.00
2022-08-05T01:50:28.663Z,4.00
2022-08-05T01:51:21.174Z,4.00
2022-08-05T01:52:21.180Z,4.00
2022-08-05T01:53:54.381Z,4.00
2022-08-05T01:54:25.707Z,4.00
2022-08-05T01:55:21.190Z,4.00
2022-08-05T01:58:10.982Z,4.00
2022-08-05T01:58:11.868Z,4.00
2022-08-05T01:58:40.268Z,4.00
2022-08-05T01:59:21.211Z,4.00
2022-08-05T02:00:21.218Z,4.00
2022-08-05T02:01:24.553Z,4.00
2022-08-05T02:02:28.521Z,4.00
2022-08-05T02:03:24.350Z,4.00
2022-08-05T02:04:21.241Z,4.00
2022-08-05T02:05:23.338Z,4.00
2022-08-05T02:06:37.707Z,4.00
2022-08-05T02:07:22.249Z,4.00
2022-08-05T02:08:30.877Z,4.00
2022-08-05T02:09:21.258Z,4.00
2022-08-05T02:10:23.674Z,4.00
2022-08-05T02:11:23.863Z,4.00
2022-08-05T02:12:21.274Z,4.00
2022-08-05T02:13:21.968Z,4.00
2022-08-05T02:14:21.284Z,4.00
2022-08-05T02:15:21.290Z,4.00
2022-08-05T02:16:22.004Z,4.00
2022-08-05T02:18:28.598Z,4.00
2022-08-05T02:18:30.926Z,4.00
2022-08-05T02:19:21.302Z,4.00
2022-08-05T02:20:21.307Z,4.00
2022-08-05T02:21:21.313Z,4.00
2022-08-05T02:22:26.775Z,4.00
2022-08-05T02:23:21.320Z,4.00
2022-08-05T02:24:23.448Z,4.00
2022-08-05T02:25:21.721Z,4.00
2022-08-05T02:26:21.782Z,4.00
2022-08-05T02:27:21.738Z,4.00
2022-08-05T02:28:28.864Z,4.00
2022-08-05T02:29:26.078Z,4.00
2022-08-05T02:30:21.355Z,4.00
2022-08-05T02:31:21.453Z,4.00
2022-08-05T02:32:29.194Z,4.00
2022-08-05T02:33:24.478Z,4.00
2022-08-05T02:34:21.369Z,4.00
2022-08-05T02:35:27.937Z,4.00
2022-08-05T02:36:21.382Z,4.00
2022-08-05T02:37:21.777Z,4.00
2022-08-05T02:38:21.389Z,4.00
2022-08-05T02:39:21.739Z,4.00
2022-08-05T02:40:21.400Z,4.00
2022-08-05T02:41:21.402Z,4.00
2022-08-05T02:42:25.842Z,4.00
2022-08-05T02:43:21.419Z,4.00
2022-08-05T02:44:21.412Z,4.00
2022-08-05T02:45:21.422Z,4.00
2022-08-05T02:46:27.391Z,4.00
2022-08-05T02:47:21.669Z,8.00
2022-08-05T02:48:21.432Z,8.00
2022-08-05T02:49:21.912Z,8.00
2022-08-05T02:50:21.438Z,8.00
2022-08-05T02:51:28.442Z,8.00
2022-08-05T02:52:29.904Z,8.00
2022-08-05T02:53:21.450Z,8.00
2022-08-05T02:54:36.153Z,8.00
2022-08-05T02:55:54.207Z,4.00
2022-08-05T02:56:21.466Z,4.00
2022-08-05T02:58:10.072Z,4.00
2022-08-05T02:58:21.902Z,8.00
2022-08-05T02:59:21.477Z,8.00
2022-08-05T03:00:21.484Z,8.00
2022-08-05T03:01:21.558Z,8.00
2022-08-05T03:02:21.491Z,8.00
2022-08-05T03:03:23.582Z,8.00
2022-08-05T03:04:23.103Z,8.00
2022-08-05T03:05:21.817Z,8.00
2022-08-05T03:06:54.000Z,8.00
2022-08-05T03:07:40.385Z,12.00
2022-08-05T03:08:26.901Z,12.00
2022-08-05T03:09:36.370Z,8.00
2022-08-05T03:10:24.410Z,8.00
2022-08-05T03:11:55.218Z,8.00
2022-08-05T03:12:21.529Z,8.00
2022-08-05T03:13:21.533Z,12.00
2022-08-05T03:14:21.545Z,12.00
2022-08-05T03:15:21.545Z,12.00
2022-08-05T03:16:21.551Z,16.00
2022-08-05T03:17:22.031Z,16.00
2022-08-05T03:18:24.659Z,20.00
2022-08-05T03:19:34.078Z,24.00
2022-08-05T03:20:21.560Z,24.00
2022-08-05T03:21:21.566Z,28.00
2022-08-05T03:22:32.191Z,36.00
2022-08-05T03:23:24.157Z,40.00
2022-08-05T03:24:29.800Z,44.00
2022-08-05T03:25:32.402Z,48.00
2022-08-05T03:26:32.299Z,56.00
2022-08-05T03:27:22.014Z,60.00
2022-08-05T03:28:21.595Z,60.00
2022-08-05T03:29:21.597Z,68.00
2022-08-05T03:30:21.605Z,68.00
2022-08-05T03:31:57.150Z,72.00
2022-08-05T03:32:21.611Z,76.00
2022-08-05T03:33:21.855Z,80.00
2022-08-05T03:34:24.376Z,84.00
2022-08-05T03:35:21.627Z,88.00
2022-08-05T03:36:30.032Z,96.00
2022-08-05T03:37:22.585Z,96.00
2022-08-05T03:38:32.611Z,104.00
2022-08-05T03:39:27.153Z,108.00
2022-08-05T03:40:24.208Z,116.00
2022-08-05T03:41:23.671Z,124.00
2022-08-05T03:42:21.653Z,136.00
2022-08-05T03:44:09.236Z,144.00
2022-08-05T03:44:21.667Z,152.00
2022-08-05T03:45:23.389Z,156.00
2022-08-05T03:46:21.664Z,160.00
2022-08-05T03:47:21.973Z,164.00
2022-08-05T03:48:21.982Z,172.00
2022-08-05T03:49:24.261Z,180.00
2022-08-05T03:50:21.684Z,188.00
2022-08-05T03:52:36.992Z,212.00
2022-08-05T03:52:38.873Z,200.00
2022-08-05T03:55:49.827Z,236.00
2022-08-05T03:55:52.579Z,224.00
2022-08-05T03:56:03.681Z,240.00
2022-08-05T03:56:30.638Z,240.00
2022-08-05T03:57:21.708Z,248.00
2022-08-05T03:58:21.714Z,256.00
2022-08-05T03:59:21.717Z,256.00
2022-08-05T04:00:21.722Z,264.00
2022-08-05T04:01:21.768Z,268.00
2022-08-05T04:02:38.514Z,272.00
2022-08-05T04:03:28.947Z,276.00
2022-08-05T04:04:21.737Z,288.00
2022-08-05T04:05:23.089Z,304.00
2022-08-05T04:06:21.748Z,324.00
2022-08-05T04:07:22.029Z,340.00
2022-08-05T04:08:30.209Z,352.00
2022-08-05T04:09:26.313Z,360.00
2022-08-05T04:10:21.762Z,372.00
2022-08-05T04:11:21.761Z,384.00
2022-08-05T04:12:24.391Z,400.00
2022-08-05T04:13:21.772Z,424.00
2022-08-05T04:14:29.924Z,452.00
2022-08-05T04:15:24.437Z,488.00
2022-08-05T04:16:24.388Z,524.00
2022-08-05T04:17:22.117Z,544.00
2022-08-05T04:18:22.664Z,568.00
2022-08-05T04:19:21.793Z,584.00
2022-08-05T04:20:23.202Z,604.00
2022-08-05T04:22:08.747Z,632.00
2022-08-05T04:22:21.809Z,668.00
2022-08-05T04:24:05.827Z,700.00
2022-08-05T04:24:22.368Z,736.00
2022-08-05T04:25:38.488Z,760.00
2022-08-05T04:26:21.820Z,760.00
2022-08-05T04:30:55.285Z,732.00
2022-08-05T04:31:56.884Z,728.00
2022-08-05T04:32:55.293Z,744.00
2022-08-05T04:34:31.270Z,764.00
2022-08-05T04:34:57.657Z,784.00
2022-08-05T04:36:16.440Z,804.00
2022-08-05T04:36:55.305Z,828.00
2022-08-05T04:38:01.232Z,856.00
2022-08-05T04:38:55.351Z,880.00
2022-08-05T04:39:55.719Z,912.00
2022-08-05T04:40:55.321Z,948.00
2022-08-05T04:48:48.573Z,1120.00
2022-08-05T04:50:06.519Z,1124.00
2022-08-05T04:51:01.737Z,1144.00
2022-08-05T04:51:48.583Z,1176.00
2022-08-05T04:52:48.585Z,1216.00
2022-08-05T04:53:48.590Z,1264.00
2022-08-05T04:54:49.420Z,1316.00
2022-08-05T04:56:14.783Z,1360.00
2022-08-05T04:56:48.607Z,1400.00
2022-08-05T04:57:51.632Z,1424.00
2022-08-05T04:58:48.609Z,1456.00
2022-08-05T04:59:48.614Z,1508.00
2022-08-05T05:00:50.715Z,1560.00
2022-08-05T05:02:05.741Z,1608.00
2022-08-05T05:02:48.715Z,1648.00
2022-08-05T05:03:48.632Z,1676.00
2022-08-05T05:04:50.483Z,1704.00
2022-08-05T05:06:39.567Z,1760.00
2022-08-05T05:06:49.270Z,1836.00
2022-08-05T05:07:52.915Z,1908.00
2022-08-05T05:08:50.109Z,2008.00
2022-08-05T05:09:48.654Z,2108.00
2022-08-05T05:10:56.360Z,2196.00
2022-08-05T05:11:55.447Z,2240.00
2022-08-05T05:12:48.665Z,2296.00
2022-08-05T05:13:48.667Z,2328.00
2022-08-05T05:14:50.625Z,2360.00
2022-08-05T05:15:56.481Z,2380.00
2022-08-05T05:16:48.680Z,2380.00
2022-08-05T05:17:56.249Z,2400.00
2022-08-05T05:19:16.523Z,2404.00
2022-08-05T05:19:48.692Z,2336.00
2022-08-05T05:20:50.449Z,2280.00
2022-08-05T05:21:48.701Z,2220.00
2022-08-05T05:22:48.707Z,2216.00
2022-08-05T05:24:03.782Z,2232.00
2022-08-05T05:24:58.341Z,2264.00
2022-08-05T05:25:48.717Z,2332.00
2022-08-05T05:26:51.961Z,2404.00
2022-08-05T05:27:53.810Z,2412.00
2022-08-05T05:28:48.729Z,2396.00
2022-08-05T05:30:03.819Z,2372.00
2022-08-05T05:30:49.684Z,2380.00
2022-08-05T05:31:48.741Z,2412.00
2022-08-05T05:32:48.801Z,2380.00
2022-08-05T05:33:59.408Z,2348.00
2022-08-05T05:34:48.752Z,2348.00
2022-08-05T05:35:48.756Z,2348.00
2022-08-05T05:36:48.765Z,2284.00
2022-08-05T05:38:00.199Z,2248.00
2022-08-05T05:38:48.773Z,2272.00
2022-08-05T05:39:48.819Z,2368.00
2022-08-05T05:40:51.395Z,2496.00
2022-08-05T05:41:54.127Z,2648.00
2022-08-05T05:42:48.787Z,2772.00
2022-08-05T05:43:57.246Z,2868.00
2022-08-05T05:44:48.795Z,2844.00
2022-08-05T05:45:48.801Z,2628.00
2022-08-05T05:46:48.805Z,2328.00
2022-08-05T05:48:05.745Z,2124.00
2022-08-05T05:48:49.185Z,2008.00
2022-08-05T05:49:52.624Z,1988.00
2022-08-05T05:50:48.822Z,2076.00
2022-08-05T05:51:50.657Z,2204.00
2022-08-05T05:52:48.832Z,2260.00
2022-08-05T05:53:57.567Z,2372.00
2022-08-05T05:54:50.558Z,2560.00
2022-08-05T05:55:51.927Z,2864.00
2022-08-05T05:56:48.848Z,3088.00
2022-08-05T05:57:52.089Z,3200.00
2022-08-05T05:58:48.856Z,3200.00
2022-08-05T05:59:49.139Z,3240.00
2022-08-05T06:00:48.879Z,3292.00
2022-08-05T06:01:57.817Z,3308.00
2022-08-05T06:02:48.879Z,3320.00
2022-08-05T06:04:01.078Z,3380.00
2022-08-05T06:04:49.275Z,3540.00
2022-08-05T06:05:54.212Z,3592.00
2022-08-05T06:06:49.183Z,3436.00
2022-08-05T06:08:01.305Z,3332.00
2022-08-05T06:08:49.169Z,3184.00
2022-08-05T06:09:59.935Z,2932.00
2022-08-05T06:10:49.199Z,2668.00
2022-08-05T06:11:59.495Z,2528.00
2022-08-05T06:12:48.924Z,2476.00
2022-08-05T06:13:53.711Z,2304.00
2022-08-05T06:14:48.931Z,2248.00
2022-08-05T06:16:30.230Z,2196.00
2022-08-05T06:16:48.940Z,2092.00
2022-08-05T06:17:52.659Z,2032.00
2022-08-05T06:18:48.951Z,1968.00
2022-08-05T06:19:56.577Z,2012.00
2022-08-05T06:20:48.958Z,2140.00
2022-08-05T06:21:49.881Z,2472.00
2022-08-05T06:22:48.973Z,2948.00
2022-08-05T06:23:49.770Z,3448.00
2022-08-05T06:24:48.979Z,3832.00
2022-08-05T06:26:12.890Z,4024.00
2022-08-05T06:26:52.274Z,4112.00
2022-08-05T06:28:11.848Z,4184.00
2022-08-05T06:28:48.999Z,4276.00
2022-08-05T06:30:03.971Z,4344.00
2022-08-05T06:30:49.155Z,4352.00
2022-08-05T06:31:49.011Z,4348.00
2022-08-05T06:32:50.693Z,4180.00
2022-08-05T06:34:06.035Z,3948.00
2022-08-05T06:34:53.472Z,3668.00
2022-08-05T06:36:03.669Z,3424.00
2022-08-05T06:36:58.067Z,3204.00
2022-08-05T06:37:57.286Z,2976.00
2022-08-05T06:38:49.048Z,2852.00
2022-08-05T06:39:49.112Z,2944.00
2022-08-05T06:40:49.376Z,3164.00
2022-08-05T06:41:49.061Z,3476.00
2022-08-05T06:42:51.644Z,3636.00
2022-08-05T06:43:58.092Z,3712.00
2022-08-05T06:44:49.243Z,3696.00
2022-08-05T06:46:04.044Z,3648.00
2022-08-05T06:46:50.597Z,3652.00
2022-08-05T06:48:46.945Z,3684.00
2022-08-05T06:48:55.521Z,3752.00
2022-08-05T06:50:00.776Z,3868.00
2022-08-05T06:50:49.993Z,3984.00
2022-08-05T06:51:49.112Z,4032.00
2022-08-05T06:52:58.729Z,4084.00
2022-08-05T06:53:53.633Z,4212.00
2022-08-05T06:54:53.397Z,4472.00
2022-08-05T06:55:49.131Z,4772.00
2022-08-05T06:56:54.896Z,4996.00
2022-08-05T06:57:57.131Z,4964.00
2022-08-05T06:58:49.150Z,4920.00
2022-08-05T06:59:57.956Z,4952.00
2022-08-05T07:00:49.200Z,5180.00
2022-08-05T07:01:52.777Z,5520.00
2022-08-05T07:02:53.448Z,5600.00
2022-08-05T07:03:49.174Z,5456.00
2022-08-05T07:04:49.180Z,5084.00
2022-08-05T07:05:49.185Z,4672.00
2022-08-05T07:06:50.485Z,4396.00
2022-08-05T07:07:49.195Z,4232.00
2022-08-05T07:08:51.893Z,4392.00
2022-08-05T07:09:49.204Z,4804.00
2022-08-05T07:10:53.352Z,5392.00
2022-08-05T07:11:51.461Z,6044.00
2022-08-05T07:12:49.368Z,6216.00
2022-08-05T07:13:59.302Z,6348.00
2022-08-05T07:14:49.238Z,6772.00
2022-08-05T07:16:00.997Z,7412.00
2022-08-05T07:17:59.043Z,7172.00
2022-08-05T07:18:02.350Z,7464.00
2022-08-05T07:18:49.257Z,7220.00
2022-08-05T07:20:49.271Z,7892.00
2022-08-05T07:22:00.323Z,8404.00
2022-08-05T07:22:49.283Z,8668.00
2022-08-05T07:23:49.941Z,8492.00
2022-08-05T07:24:52.485Z,8556.00
2022-08-05T07:25:54.946Z,8108.00
2022-08-05T07:26:49.302Z,7892.00
2022-08-05T07:27:57.949Z,8572.00
2022-08-05T07:28:49.321Z,9384.00
2022-08-05T07:30:24.440Z,9688.00
2022-08-05T07:30:52.724Z,9772.00
2022-08-05T07:31:54.558Z,9396.00
2022-08-05T07:32:50.956Z,8968.00
2022-08-05T07:33:49.350Z,9036.00
2022-08-05T07:34:49.351Z,9488.00
2022-08-05T07:36:05.023Z,9580.00
2022-08-05T07:36:49.372Z,10648.00
2022-08-05T07:37:49.379Z,10312.00
2022-08-05T07:38:49.381Z,15244.00
2022-08-05T07:40:04.113Z,14036.00
2022-08-05T07:40:49.440Z,17984.00
2022-08-05T07:42:14.383Z,22688.00
2022-08-05T07:42:49.407Z,12764.00
2022-08-05T07:43:49.413Z,28704.00
2022-08-05T07:44:49.422Z,13836.00
2022-08-05T07:45:57.193Z,14032.00
2022-08-05T07:46:50.288Z,13304.00
2022-08-05T07:47:49.448Z,13372.00
2022-08-05T07:49:03.350Z,14052.00
2022-08-05T07:49:54.370Z,13720.00
2022-08-05T07:50:49.469Z,13972.00
2022-08-05T07:51:53.306Z,13556.00
2022-08-05T07:52:49.488Z,11600.00
2022-08-05T07:53:50.612Z,11400.00
2022-08-05T07:54:49.503Z,10212.00
2022-08-05T07:56:05.647Z,10356.00
2022-08-05T07:57:01.931Z,10992.00
2022-08-05T07:57:55.229Z,12124.00
2022-08-05T07:58:54.798Z,12996.00
2022-08-05T07:59:49.544Z,14080.00
2022-08-05T08:00:49.558Z,14544.00
2022-08-05T08:01:52.212Z,16356.00
2022-08-05T08:03:14.190Z,19104.00
2022-08-05T08:03:51.300Z,34176.00
2022-08-05T08:04:49.894Z,14464.00
2022-08-05T08:05:50.020Z,15384.00
2022-08-05T08:06:49.601Z,15308.00
2022-08-05T08:07:59.745Z,9356.00
2022-08-05T08:08:49.621Z,6864.00
2022-08-05T08:09:49.630Z,6340.00
2022-08-05T08:10:49.637Z,4764.00
2022-08-05T08:11:59.009Z,7376.00
2022-08-05T08:12:49.959Z,7836.00
2022-08-05T08:14:00.646Z,8472.00
2022-08-05T08:14:49.677Z,9012.00
2022-08-05T08:16:34.425Z,8956.00
2022-08-05T08:16:51.407Z,8396.00
2022-08-05T08:17:52.688Z,6848.00
2022-08-05T08:18:50.136Z,5400.00
2022-08-05T08:20:22.334Z,4304.00
2022-08-05T08:21:03.019Z,3576.00
2022-08-05T08:21:49.739Z,3220.00
2022-08-05T08:22:49.746Z,3244.00
2022-08-05T08:24:01.501Z,3528.00
2022-08-05T08:24:51.376Z,4128.00
2022-08-05T08:25:59.269Z,4696.00
2022-08-05T08:26:49.785Z,5224.00
2022-08-05T08:27:51.428Z,5828.00
2022-08-05T08:28:59.095Z,6400.00
2022-08-05T08:30:05.306Z,6920.00
2022-08-05T08:30:50.250Z,7608.00
2022-08-05T08:31:49.833Z,8584.00
2022-08-05T08:32:49.841Z,9848.00
2022-08-05T08:33:51.580Z,11272.00
2022-08-05T08:34:49.855Z,12500.00
2022-08-05T08:35:52.817Z,14720.00
2022-08-05T08:36:54.717Z,21024.00
2022-08-05T08:37:54.389Z,18976.00
2022-08-05T08:38:53.204Z,17536.00
2022-08-05T08:39:49.948Z,22240.00
2022-08-05T08:40:51.647Z,18336.00
2022-08-05T08:41:52.562Z,17504.00
2022-08-05T08:42:52.406Z,10476.00
2022-08-05T08:45:18.772Z,6396.00
2022-08-05T08:45:19.601Z,8104.00
2022-08-05T08:45:49.956Z,5444.00
2022-08-05T08:46:49.968Z,4504.00
2022-08-05T08:48:10.548Z,4092.00
2022-08-05T08:49:06.238Z,3720.00
2022-08-05T08:50:22.471Z,2364.00
2022-08-05T08:51:03.665Z,2036.00
2022-08-05T08:52:05.921Z,2248.00
2022-08-05T08:52:52.811Z,2208.00
2022-08-05T08:53:50.031Z,2112.00
2022-08-05T08:54:50.044Z,2180.00
2022-08-05T08:56:04.215Z,2428.00
2022-08-05T08:56:50.073Z,2992.00
2022-08-05T08:57:57.936Z,3592.00
2022-08-05T08:58:50.602Z,3868.00
2022-08-05T08:59:50.086Z,3656.00
2022-08-05T09:00:50.177Z,3552.00
2022-08-05T09:01:57.445Z,3952.00
2022-08-05T09:02:50.111Z,4064.00
2022-08-05T09:03:54.362Z,3468.00
2022-08-05T09:05:16.732Z,2964.00
2022-08-05T09:06:09.260Z,2512.00
2022-08-05T09:06:50.149Z,2324.00
2022-08-05T09:07:57.093Z,2536.00
2022-08-05T09:08:50.164Z,2908.00
2022-08-05T09:09:50.275Z,3052.00
2022-08-05T09:10:50.178Z,2960.00
2022-08-05T09:11:50.853Z,2920.00
2022-08-05T09:12:50.803Z,2496.00
2022-08-05T09:14:09.702Z,2232.00
2022-08-05T09:14:58.095Z,2268.00
2022-08-05T09:15:50.227Z,2440.00
2022-08-05T09:16:50.230Z,2532.00
2022-08-05T09:17:50.243Z,2320.00
2022-08-05T09:18:50.252Z,2256.00
2022-08-05T09:20:01.317Z,2360.00
2022-08-05T09:20:50.265Z,2344.00
2022-08-05T09:22:23.236Z,2196.00
2022-08-05T09:22:51.853Z,2120.00
2022-08-05T09:23:50.289Z,2176.00
2022-08-05T09:24:50.292Z,2600.00
2022-08-05T09:26:02.229Z,3592.00
2022-08-05T09:26:51.772Z,5156.00
2022-08-05T09:28:04.212Z,6568.00
2022-08-05T09:28:50.333Z,6704.00
2022-08-05T09:29:50.350Z,5772.00
2022-08-05T09:30:50.348Z,4912.00
2022-08-05T09:32:45.976Z,3540.00
2022-08-05T09:32:51.749Z,2960.00
2022-08-05T09:33:50.816Z,3144.00
2022-08-05T09:34:50.375Z,3300.00
2022-08-05T09:35:50.377Z,3548.00
2022-08-05T09:36:55.681Z,3188.00
2022-08-05T09:38:17.266Z,3092.00
2022-08-05T09:38:50.400Z,3316.00
2022-08-05T09:39:52.363Z,3232.00
2022-08-05T09:40:52.639Z,2580.00
2022-08-05T09:41:56.291Z,2268.00
2022-08-05T09:42:50.429Z,2232.00
2022-08-05T09:43:50.437Z,2256.00
2022-08-05T09:44:50.796Z,2400.00
2022-08-05T09:46:07.312Z,2412.00
2022-08-05T09:46:53.704Z,2596.00
2022-08-05T09:47:56.081Z,3468.00
2022-08-05T09:49:07.344Z,4708.00
2022-08-05T09:50:00.762Z,5488.00
2022-08-05T09:50:50.489Z,5936.00
2022-08-05T09:51:50.520Z,6244.00
2022-08-05T09:52:52.944Z,6856.00
2022-08-05T09:53:53.397Z,7528.00
2022-08-05T09:54:50.515Z,6956.00
2022-08-05T09:55:57.335Z,5276.00
2022-08-05T09:56:52.384Z,3572.00
2022-08-05T09:57:54.716Z,2456.00
2022-08-05T09:58:50.543Z,2016.00
2022-08-05T09:59:50.552Z,1948.00
2022-08-05T10:00:50.558Z,1872.00
2022-08-05T10:01:57.850Z,1764.00
2022-08-05T10:02:50.617Z,1524.00
2022-08-05T10:03:59.139Z,1440.00
2022-08-05T10:04:50.587Z,1460.00
2022-08-05T10:05:50.593Z,1404.00
2022-08-05T10:06:58.872Z,1332.00
2022-08-05T10:08:35.778Z,1504.00
2022-08-05T10:08:53.843Z,1632.00
2022-08-05T10:09:50.627Z,1660.00
2022-08-05T10:10:54.318Z,1508.00
2022-08-05T10:11:50.642Z,1428.00
2022-08-05T10:12:50.677Z,1752.00
2022-08-05T10:13:54.599Z,2256.00
2022-08-05T10:14:50.656Z,2348.00
2022-08-05T10:15:50.664Z,2156.00
2022-08-05T10:16:52.400Z,1820.00
2022-08-05T10:17:56.564Z,1640.00
2022-08-05T10:18:50.685Z,1548.00
2022-08-05T10:20:03.920Z,1456.00
2022-08-05T10:20:50.701Z,1480.00
2022-08-05T10:21:50.708Z,1584.00
2022-08-05T10:22:51.211Z,1672.00
2022-08-05T10:24:00.074Z,1732.00
2022-08-05T10:24:50.724Z,1728.00
2022-08-05T10:25:50.732Z,1680.00
2022-08-05T10:26:52.381Z,1496.00
2022-08-05T10:28:12.821Z,1476.00
2022-08-05T10:28:50.799Z,1900.00
2022-08-05T10:30:41.212Z,2208.00
2022-08-05T10:32:48.663Z,2708.00
2022-08-05T10:32:52.974Z,3212.00
2022-08-05T10:33:00.700Z,3832.00
2022-08-05T10:33:52.382Z,3980.00
2022-08-05T10:34:50.787Z,4200.00
2022-08-05T10:35:59.195Z,6812.00
2022-08-05T10:36:50.799Z,8960.00
2022-08-05T10:37:50.808Z,12900.00
2022-08-05T10:38:50.814Z,13284.00
2022-08-05T10:39:58.977Z,14356.00
2022-08-05T10:40:50.920Z,5852.00
2022-08-05T10:41:50.838Z,4188.00
2022-08-05T10:42:50.841Z,3436.00
2022-08-05T10:43:50.846Z,3268.00
2022-08-05T10:44:50.859Z,2972.00
2022-08-05T10:45:50.867Z,2372.00
2022-08-05T10:46:54.472Z,2160.00
2022-08-05T10:48:29.808Z,2072.00
2022-08-05T10:48:58.107Z,2600.00
2022-08-05T10:50:20.820Z,3568.00
2022-08-05T10:50:50.889Z,4324.00
2022-08-05T10:51:59.985Z,4948.00
2022-08-05T10:52:50.912Z,5164.00
2022-08-05T10:53:50.916Z,5592.00
2022-08-05T10:54:56.697Z,5052.00
2022-08-05T10:56:03.810Z,5440.00
2022-08-05T10:56:53.165Z,5884.00
2022-08-05T10:57:51.398Z,5356.00
2022-08-05T10:58:50.943Z,5108.00
2022-08-05T11:00:04.363Z,4980.00
2022-08-05T11:00:55.438Z,4644.00
2022-08-05T11:01:54.578Z,4936.00
2022-08-05T11:02:51.012Z,4836.00
2022-08-05T11:03:51.053Z,4888.00
2022-08-05T11:04:50.976Z,5036.00
2022-08-05T11:05:50.994Z,4716.00
2022-08-05T11:06:50.992Z,4216.00
2022-08-05T11:08:02.693Z,3856.00
2022-08-05T11:08:51.008Z,3660.00
2022-08-05T11:09:51.012Z,3348.00
2022-08-05T11:11:00.864Z,2892.00
2022-08-05T11:11:53.600Z,2492.00
2022-08-05T11:12:55.044Z,2116.00
2022-08-05T11:13:57.972Z,1880.00
2022-08-05T11:15:11.722Z,1796.00
2022-08-05T11:16:00.100Z,1788.00
2022-08-05T11:16:57.955Z,1876.00
2022-08-05T11:17:57.544Z,2084.00
2022-08-05T11:18:51.669Z,2176.00
2022-08-05T11:20:17.565Z,2312.00
2022-08-05T11:20:51.127Z,2716.00
2022-08-05T11:21:51.103Z,3380.00
2022-08-05T11:22:53.942Z,4072.00
2022-08-05T11:24:05.225Z,4052.00
2022-08-05T11:25:16.432Z,4628.00
2022-08-05T11:26:05.736Z,6268.00
2022-08-05T11:26:51.123Z,23040.00
2022-08-05T11:28:00.710Z,24608.00
2022-08-05T11:28:51.136Z,22144.00
2022-08-05T11:29:51.141Z,11480.00
2022-08-05T11:30:53.357Z,8068.00
2022-08-05T11:31:58.660Z,7624.00
2022-08-05T11:32:51.156Z,9444.00
2022-08-05T11:33:51.167Z,13604.00
2022-08-05T11:34:54.427Z,16000.00
2022-08-05T11:36:07.780Z,24512.00
2022-08-05T11:36:53.041Z,22912.00
2022-08-05T11:38:28.116Z,24544.00
2022-08-05T11:38:51.818Z,25952.00
2022-08-05T11:39:55.239Z,24864.00
2022-08-05T11:40:51.217Z,24096.00
2022-08-05T11:42:00.635Z,5152.00
2022-08-05T11:42:51.230Z,4864.00
2022-08-05T11:44:04.575Z,5464.00
2022-08-05T11:44:54.152Z,5864.00
2022-08-05T11:46:23.484Z,5868.00
2022-08-05T11:47:09.970Z,6236.00
2022-08-05T11:47:54.573Z,4764.00
2022-08-05T11:48:51.286Z,5508.00
2022-08-05T11:49:51.433Z,3636.00
2022-08-05T11:50:51.305Z,3360.00
2022-08-05T11:51:51.310Z,4204.00
2022-08-05T11:52:57.219Z,6120.00
2022-08-05T11:53:51.328Z,5656.00
2022-08-05T11:54:54.858Z,6744.00
2022-08-05T11:55:51.353Z,6080.00
2022-08-05T11:56:52.192Z,5256.00
2022-08-05T11:58:08.016Z,5476.00
2022-08-05T11:58:51.510Z,10876.00
2022-08-05T11:59:51.380Z,10056.00
2022-08-05T12:00:52.772Z,6412.00
2022-08-05T12:01:51.406Z,3804.00
2022-08-05T12:02:51.465Z,4064.00
2022-08-05T12:03:56.064Z,3936.00
2022-08-05T12:04:59.667Z,3696.00
2022-08-05T12:05:51.444Z,7696.00
2022-08-05T12:06:51.451Z,12296.00
2022-08-05T12:08:09.256Z,5520.00
2022-08-05T12:08:51.578Z,10156.00
2022-08-05T12:09:53.434Z,6968.00
2022-08-05T12:10:51.662Z,6328.00
2022-08-05T12:11:51.492Z,9088.00
2022-08-05T12:12:59.983Z,5468.00
2022-08-05T12:13:51.508Z,12488.00
2022-08-05T12:14:51.522Z,11552.00
2022-08-05T12:15:51.534Z,10556.00
2022-08-05T12:16:51.535Z,10048.00
2022-08-05T12:18:03.202Z,10740.00
2022-08-05T12:18:53.354Z,10884.00
2022-08-05T12:20:26.027Z,11300.00
2022-08-05T12:20:51.570Z,10668.00
2022-08-05T12:21:51.580Z,9020.00
2022-08-05T12:22:51.930Z,7280.00
2022-08-05T12:23:51.608Z,10944.00
2022-08-05T12:24:51.607Z,5484.00
2022-08-05T12:25:51.631Z,9896.00
2022-08-05T12:26:51.625Z,10216.00
2022-08-05T12:27:53.263Z,9936.00
2022-08-05T12:28:51.647Z,9488.00
2022-08-05T12:29:53.343Z,9084.00
2022-08-05T12:30:51.661Z,9052.00
2022-08-05T12:31:53.460Z,9596.00
2022-08-05T12:32:51.683Z,6720.00
2022-08-05T12:33:51.695Z,4368.00
2022-08-05T12:34:51.700Z,8356.00
2022-08-05T12:35:51.749Z,6728.00